<?xml version="1.0" encoding="UTF-8" standalone="no" ?>
<gpx xmlns="http://www.topografix.com/GPX/1/1" xmlns:xsi="http://www.w3.org/2001/XMLSchema-instance" xsi:schemaLocation="http://www.topografix.com/GPX/1/1 http://www.topografix.com/GPX/1/1/gpx.xsd" version="1.1" creator="VisuGPX - https://www.visugpx.com">
  <metadata>
    <name>Le Lac Vert en Raquettes</name>
  </metadata>
  <wpt lat="48.06399" lon="7.02441">
    <ele>1150</ele>
    <name><![CDATA[Parking]]></name>
  </wpt>
  <wpt lat="48.0657" lon="7.02868">
    <ele>1232</ele>
    <name><![CDATA[Carrefour GR5 GR531]]></name>
  </wpt>
  <wpt lat="48.07247" lon="7.03411">
    <ele>1138</ele>
    <name><![CDATA[Baerenbach]]></name>
  </wpt>
  <wpt lat="48.07738" lon="7.05076">
    <ele>1176</ele>
    <name><![CDATA[Refuge de Schupferen]]></name>
  </wpt>
  <wpt lat="48.08332" lon="7.05511">
    <ele>1150</ele>
    <name><![CDATA[Ferme auberge de Seestaettle]]></name>
  </wpt>
  <wpt lat="48.09252" lon="7.06063">
    <ele>1229</ele>
    <name><![CDATA[Dreieck]]></name>
  </wpt>
  <wpt lat="48.08319" lon="7.05185">
    <ele>1276</ele>
    <name><![CDATA[Le Tanet]]></name>
  </wpt>
  <wpt lat="48.06422" lon="7.02411">
    <ele>1153</ele>
    <name><![CDATA[Parking Col de la Schlucht]]></name>
  </wpt>
  <trk>
    <name><![CDATA[Le Lac Vert en Raquettes]]></name>
    <trkseg>
      <trkpt lat="48.06399" lon="7.02441">
        <ele>1150</ele>
        <time>2021-12-07T11:25:07+01:00</time>
      </trkpt>
      <trkpt lat="48.06496" lon="7.02612">
        <ele>1189</ele>
        <time>2021-12-07T11:25:12+01:00</time>
      </trkpt>
      <trkpt lat="48.06539" lon="7.0273">
        <ele>1209</ele>
        <time>2021-12-07T11:25:17+01:00</time>
      </trkpt>
      <trkpt lat="48.0657" lon="7.02868">
        <ele>1232</ele>
        <time>2021-12-07T11:25:22+01:00</time>
      </trkpt>
      <trkpt lat="48.06541" lon="7.02934">
        <ele>1221</ele>
        <time>2021-12-07T11:25:27+01:00</time>
      </trkpt>
      <trkpt lat="48.06541" lon="7.03046">
        <ele>1222</ele>
        <time>2021-12-07T11:25:32+01:00</time>
      </trkpt>
      <trkpt lat="48.06508" lon="7.03129">
        <ele>1206</ele>
        <time>2021-12-07T11:25:37+01:00</time>
      </trkpt>
      <trkpt lat="48.06465" lon="7.03235">
        <ele>1175</ele>
        <time>2021-12-07T11:25:42+01:00</time>
      </trkpt>
      <trkpt lat="48.06531" lon="7.03271">
        <ele>1186</ele>
        <time>2021-12-07T11:25:47+01:00</time>
      </trkpt>
      <trkpt lat="48.06579" lon="7.03305">
        <ele>1168</ele>
        <time>2021-12-07T11:25:52+01:00</time>
      </trkpt>
      <trkpt lat="48.06663" lon="7.03389">
        <ele>1124</ele>
        <time>2021-12-07T11:25:57+01:00</time>
      </trkpt>
      <trkpt lat="48.06702" lon="7.03355">
        <ele>1129</ele>
        <time>2021-12-07T11:26:02+01:00</time>
      </trkpt>
      <trkpt lat="48.06729" lon="7.03284">
        <ele>1144</ele>
        <time>2021-12-07T11:26:07+01:00</time>
      </trkpt>
      <trkpt lat="48.06843" lon="7.03256">
        <ele>1162</ele>
        <time>2021-12-07T11:26:12+01:00</time>
      </trkpt>
      <trkpt lat="48.0688" lon="7.03288">
        <ele>1161</ele>
        <time>2021-12-07T11:26:17+01:00</time>
      </trkpt>
      <trkpt lat="48.0699" lon="7.03183">
        <ele>1197</ele>
        <time>2021-12-07T11:26:22+01:00</time>
      </trkpt>
      <trkpt lat="48.07036" lon="7.03168">
        <ele>1191</ele>
        <time>2021-12-07T11:26:27+01:00</time>
      </trkpt>
      <trkpt lat="48.07065" lon="7.03202">
        <ele>1180</ele>
        <time>2021-12-07T11:26:32+01:00</time>
      </trkpt>
      <trkpt lat="48.07142" lon="7.03213">
        <ele>1173</ele>
        <time>2021-12-07T11:26:37+01:00</time>
      </trkpt>
      <trkpt lat="48.07221" lon="7.03232">
        <ele>1174</ele>
        <time>2021-12-07T11:26:42+01:00</time>
      </trkpt>
      <trkpt lat="48.07244" lon="7.03318">
        <ele>1150</ele>
        <time>2021-12-07T11:26:47+01:00</time>
      </trkpt>
      <trkpt lat="48.07247" lon="7.03411">
        <ele>1138</ele>
        <time>2021-12-07T11:26:52+01:00</time>
      </trkpt>
      <trkpt lat="48.07247" lon="7.03535">
        <ele>1133</ele>
        <time>2021-12-07T11:26:57+01:00</time>
      </trkpt>
      <trkpt lat="48.07208" lon="7.03674">
        <ele>1116</ele>
        <time>2021-12-07T11:27:02+01:00</time>
      </trkpt>
      <trkpt lat="48.07167" lon="7.03812">
        <ele>1099</ele>
        <time>2021-12-07T11:27:07+01:00</time>
      </trkpt>
      <trkpt lat="48.07194" lon="7.03928">
        <ele>1103</ele>
        <time>2021-12-07T11:27:12+01:00</time>
      </trkpt>
      <trkpt lat="48.07273" lon="7.04003">
        <ele>1098</ele>
        <time>2021-12-07T11:27:17+01:00</time>
      </trkpt>
      <trkpt lat="48.07432" lon="7.03932">
        <ele>1126</ele>
        <time>2021-12-07T11:27:22+01:00</time>
      </trkpt>
      <trkpt lat="48.07461" lon="7.03889">
        <ele>1141</ele>
        <time>2021-12-07T11:27:27+01:00</time>
      </trkpt>
      <trkpt lat="48.07509" lon="7.03865">
        <ele>1152</ele>
        <time>2021-12-07T11:27:32+01:00</time>
      </trkpt>
      <trkpt lat="48.076" lon="7.03865">
        <ele>1153</ele>
        <time>2021-12-07T11:27:37+01:00</time>
      </trkpt>
      <trkpt lat="48.0764" lon="7.03874">
        <ele>1158</ele>
        <time>2021-12-07T11:27:42+01:00</time>
      </trkpt>
      <trkpt lat="48.07694" lon="7.03889">
        <ele>1174</ele>
        <time>2021-12-07T11:27:47+01:00</time>
      </trkpt>
      <trkpt lat="48.07698" lon="7.0396">
        <ele>1168</ele>
        <time>2021-12-07T11:27:52+01:00</time>
      </trkpt>
      <trkpt lat="48.07695" lon="7.0405">
        <ele>1163</ele>
        <time>2021-12-07T11:27:57+01:00</time>
      </trkpt>
      <trkpt lat="48.07663" lon="7.04179">
        <ele>1146</ele>
        <time>2021-12-07T11:28:02+01:00</time>
      </trkpt>
      <trkpt lat="48.07638" lon="7.04252">
        <ele>1138</ele>
        <time>2021-12-07T11:28:07+01:00</time>
      </trkpt>
      <trkpt lat="48.07626" lon="7.04453">
        <ele>1143</ele>
        <time>2021-12-07T11:28:12+01:00</time>
      </trkpt>
      <trkpt lat="48.07603" lon="7.04664">
        <ele>1150</ele>
        <time>2021-12-07T11:28:17+01:00</time>
      </trkpt>
      <trkpt lat="48.07643" lon="7.04887">
        <ele>1162</ele>
        <time>2021-12-07T11:28:22+01:00</time>
      </trkpt>
      <trkpt lat="48.07695" lon="7.04998">
        <ele>1172</ele>
        <time>2021-12-07T11:28:27+01:00</time>
      </trkpt>
      <trkpt lat="48.07738" lon="7.05076">
        <ele>1176</ele>
        <time>2021-12-07T11:28:32+01:00</time>
      </trkpt>
      <trkpt lat="48.07841" lon="7.0514">
        <ele>1187</ele>
        <time>2021-12-07T11:28:37+01:00</time>
      </trkpt>
      <trkpt lat="48.07922" lon="7.05303">
        <ele>1191</ele>
        <time>2021-12-07T11:28:42+01:00</time>
      </trkpt>
      <trkpt lat="48.07987" lon="7.05395">
        <ele>1195</ele>
        <time>2021-12-07T11:28:47+01:00</time>
      </trkpt>
      <trkpt lat="48.08059" lon="7.05445">
        <ele>1199</ele>
        <time>2021-12-07T11:28:52+01:00</time>
      </trkpt>
      <trkpt lat="48.08332" lon="7.05511">
        <ele>1150</ele>
        <time>2021-12-07T11:28:57+01:00</time>
      </trkpt>
      <trkpt lat="48.0844" lon="7.05475">
        <ele>1147</ele>
        <time>2021-12-07T11:29:02+01:00</time>
      </trkpt>
      <trkpt lat="48.08464" lon="7.05561">
        <ele>1137</ele>
        <time>2021-12-07T11:29:07+01:00</time>
      </trkpt>
      <trkpt lat="48.08443" lon="7.05685">
        <ele>1122</ele>
        <time>2021-12-07T11:29:12+01:00</time>
      </trkpt>
      <trkpt lat="48.08434" lon="7.05749">
        <ele>1110</ele>
        <time>2021-12-07T11:29:17+01:00</time>
      </trkpt>
      <trkpt lat="48.08452" lon="7.0581">
        <ele>1101</ele>
        <time>2021-12-07T11:29:22+01:00</time>
      </trkpt>
      <trkpt lat="48.08501" lon="7.0584">
        <ele>1102</ele>
        <time>2021-12-07T11:29:27+01:00</time>
      </trkpt>
      <trkpt lat="48.08501" lon="7.0596">
        <ele>1082</ele>
        <time>2021-12-07T11:29:32+01:00</time>
      </trkpt>
      <trkpt lat="48.08526" lon="7.06058">
        <ele>1073</ele>
        <time>2021-12-07T11:29:37+01:00</time>
      </trkpt>
      <trkpt lat="48.0854" lon="7.06129">
        <ele>1066</ele>
        <time>2021-12-07T11:29:42+01:00</time>
      </trkpt>
      <trkpt lat="48.08574" lon="7.06185">
        <ele>1066</ele>
        <time>2021-12-07T11:29:47+01:00</time>
      </trkpt>
      <trkpt lat="48.08592" lon="7.06303">
        <ele>1056</ele>
        <time>2021-12-07T11:29:52+01:00</time>
      </trkpt>
      <trkpt lat="48.08624" lon="7.06372">
        <ele>1054</ele>
        <time>2021-12-07T11:29:57+01:00</time>
      </trkpt>
      <trkpt lat="48.08693" lon="7.06325">
        <ele>1057</ele>
        <time>2021-12-07T11:30:02+01:00</time>
      </trkpt>
      <trkpt lat="48.08739" lon="7.06539">
        <ele>1066</ele>
        <time>2021-12-07T11:30:07+01:00</time>
      </trkpt>
      <trkpt lat="48.08838" lon="7.06593">
        <ele>1075</ele>
        <time>2021-12-07T11:30:12+01:00</time>
      </trkpt>
      <trkpt lat="48.0893" lon="7.06606">
        <ele>1080</ele>
        <time>2021-12-07T11:30:17+01:00</time>
      </trkpt>
      <trkpt lat="48.09014" lon="7.06552">
        <ele>1081</ele>
        <time>2021-12-07T11:30:22+01:00</time>
      </trkpt>
      <trkpt lat="48.09032" lon="7.06475">
        <ele>1081</ele>
        <time>2021-12-07T11:30:27+01:00</time>
      </trkpt>
      <trkpt lat="48.09154" lon="7.06462">
        <ele>1133</ele>
        <time>2021-12-07T11:30:32+01:00</time>
      </trkpt>
      <trkpt lat="48.09162" lon="7.0634">
        <ele>1168</ele>
        <time>2021-12-07T11:30:37+01:00</time>
      </trkpt>
      <trkpt lat="48.09162" lon="7.06256">
        <ele>1183</ele>
        <time>2021-12-07T11:30:42+01:00</time>
      </trkpt>
      <trkpt lat="48.09196" lon="7.06157">
        <ele>1202</ele>
        <time>2021-12-07T11:30:47+01:00</time>
      </trkpt>
      <trkpt lat="48.09229" lon="7.06226">
        <ele>1207</ele>
        <time>2021-12-07T11:30:52+01:00</time>
      </trkpt>
      <trkpt lat="48.09252" lon="7.06063">
        <ele>1229</ele>
        <time>2021-12-07T11:30:57+01:00</time>
      </trkpt>
      <trkpt lat="48.09098" lon="7.05874">
        <ele>1222</ele>
        <time>2021-12-07T11:31:02+01:00</time>
      </trkpt>
      <trkpt lat="48.08904" lon="7.05762">
        <ele>1239</ele>
        <time>2021-12-07T11:31:07+01:00</time>
      </trkpt>
      <trkpt lat="48.08741" lon="7.05599">
        <ele>1237</ele>
        <time>2021-12-07T11:31:12+01:00</time>
      </trkpt>
      <trkpt lat="48.08718" lon="7.05428">
        <ele>1220</ele>
        <time>2021-12-07T11:31:17+01:00</time>
      </trkpt>
      <trkpt lat="48.08673" lon="7.05307">
        <ele>1233</ele>
        <time>2021-12-07T11:31:22+01:00</time>
      </trkpt>
      <trkpt lat="48.08582" lon="7.05237">
        <ele>1250</ele>
        <time>2021-12-07T11:31:27+01:00</time>
      </trkpt>
      <trkpt lat="48.08517" lon="7.05213">
        <ele>1259</ele>
        <time>2021-12-07T11:31:32+01:00</time>
      </trkpt>
      <trkpt lat="48.08415" lon="7.05215">
        <ele>1276</ele>
        <time>2021-12-07T11:31:37+01:00</time>
      </trkpt>
      <trkpt lat="48.08319" lon="7.05185">
        <ele>1276</ele>
        <time>2021-12-07T11:31:42+01:00</time>
      </trkpt>
      <trkpt lat="48.08202" lon="7.05061">
        <ele>1261</ele>
        <time>2021-12-07T11:31:47+01:00</time>
      </trkpt>
      <trkpt lat="48.08091" lon="7.0491">
        <ele>1267</ele>
        <time>2021-12-07T11:31:52+01:00</time>
      </trkpt>
      <trkpt lat="48.08051" lon="7.04861">
        <ele>1268</ele>
        <time>2021-12-07T11:31:57+01:00</time>
      </trkpt>
      <trkpt lat="48.08034" lon="7.0478">
        <ele>1272</ele>
        <time>2021-12-07T11:32:02+01:00</time>
      </trkpt>
      <trkpt lat="48.08" lon="7.04683">
        <ele>1279</ele>
        <time>2021-12-07T11:32:07+01:00</time>
      </trkpt>
      <trkpt lat="48.07954" lon="7.04561">
        <ele>1273</ele>
        <time>2021-12-07T11:32:12+01:00</time>
      </trkpt>
      <trkpt lat="48.07952" lon="7.04435">
        <ele>1268</ele>
        <time>2021-12-07T11:32:17+01:00</time>
      </trkpt>
      <trkpt lat="48.07912" lon="7.04041">
        <ele>1257</ele>
        <time>2021-12-07T11:32:22+01:00</time>
      </trkpt>
      <trkpt lat="48.07893" lon="7.03932">
        <ele>1251</ele>
        <time>2021-12-07T11:32:27+01:00</time>
      </trkpt>
      <trkpt lat="48.07847" lon="7.03784">
        <ele>1253</ele>
        <time>2021-12-07T11:32:32+01:00</time>
      </trkpt>
      <trkpt lat="48.07785" lon="7.03705">
        <ele>1254</ele>
        <time>2021-12-07T11:32:37+01:00</time>
      </trkpt>
      <trkpt lat="48.07739" lon="7.03666">
        <ele>1262</ele>
        <time>2021-12-07T11:32:42+01:00</time>
      </trkpt>
      <trkpt lat="48.07677" lon="7.03625">
        <ele>1258</ele>
        <time>2021-12-07T11:32:47+01:00</time>
      </trkpt>
      <trkpt lat="48.07581" lon="7.03481">
        <ele>1262</ele>
        <time>2021-12-07T11:32:52+01:00</time>
      </trkpt>
      <trkpt lat="48.07407" lon="7.03175">
        <ele>1230</ele>
        <time>2021-12-07T11:32:57+01:00</time>
      </trkpt>
      <trkpt lat="48.07287" lon="7.03057">
        <ele>1240</ele>
        <time>2021-12-07T11:33:02+01:00</time>
      </trkpt>
      <trkpt lat="48.07174" lon="7.02962">
        <ele>1250</ele>
        <time>2021-12-07T11:33:07+01:00</time>
      </trkpt>
      <trkpt lat="48.07005" lon="7.02975">
        <ele>1252</ele>
        <time>2021-12-07T11:33:12+01:00</time>
      </trkpt>
      <trkpt lat="48.06676" lon="7.02984">
        <ele>1249</ele>
        <time>2021-12-07T11:33:17+01:00</time>
      </trkpt>
      <trkpt lat="48.06616" lon="7.02986">
        <ele>1247</ele>
        <time>2021-12-07T11:33:22+01:00</time>
      </trkpt>
      <trkpt lat="48.06582" lon="7.02851">
        <ele>1235</ele>
        <time>2021-12-07T11:33:27+01:00</time>
      </trkpt>
      <trkpt lat="48.06534" lon="7.0267">
        <ele>1205</ele>
        <time>2021-12-07T11:33:32+01:00</time>
      </trkpt>
      <trkpt lat="48.06485" lon="7.02542">
        <ele>1177</ele>
        <time>2021-12-07T11:33:37+01:00</time>
      </trkpt>
      <trkpt lat="48.06422" lon="7.02411">
        <ele>1153</ele>
        <time>2021-12-07T11:33:42+01:00</time>
      </trkpt>
    </trkseg>
  </trk>
</gpx>